Terminal Aerodrome Forecast
Issued by NWS

Home | Current Version | Previous Version | Graphics & Text | Print | Product List | Glossary On
Versions: 1 2 3 4 5 6 7 8 9 10 11 12 13 14 15 16 17 18
000
FTUS43 KMPX 300700 AAA
TAFAXN
TAF AMD
KAXN 300713Z 3007/3106 34005KT P6SM SCT025 OVC035
     FM300800 35007KT 6SM BR OVC008
     FM301000 35007KT 6SM BR OVC003
      TEMPO 3010/3014 4SM BR
     FM301600 36006KT P6SM BKN010 OVC020
     FM301800 36004KT P6SM BKN020 OVC030
     FM302100 VRB03KT P6SM FEW020 BKN040
     FM310000 14006KT P6SM FEW250=

USA.gov is the U.S. government's official web portal to all federal, state and local government web resources and services.